sensor_id;sensor_type;location;lat;lon;timestamp;P1;durP1;ratioP1;P2;durP2;ratioP2
11245;SDS011;59870;50.106;8.580;2023-04-24T00:00:56;2.53;;;2.43;;
11245;SDS011;59870;50.106;8.580;2023-04-24T00:03:24;2.63;;;2.43;;
11245;SDS011;59870;50.106;8.580;2023-04-24T00:05:51;3.13;;;2.93;;
11245;SDS011;59870;50.106;8.580;2023-04-24T00:08:19;2.37;;;2.27;;
11245;SDS011;59870;50.106;8.580;2023-04-24T00:10:46;2.50;;;2.30;;
11245;SDS011;59870;50.106;8.580;2023-04-24T00:13:13;2.70;;;2.50;;
11245;SDS011;59870;50.106;8.580;2023-04-24T00:15:41;2.37;;;2.27;;
11245;SDS011;59870;50.106;8.580;2023-04-24T00:18:11;2.40;;;2.30;;
11245;SDS011;59870;50.106;8.580;2023-04-24T00:20:39;2.70;;;2.60;;
11245;SDS011;59870;50.106;8.580;2023-04-24T00:23:06;2.97;;;2.77;;
11245;SDS011;59870;50.106;8.580;2023-04-24T00:25:33;2.70;;;2.50;;
11245;SDS011;59870;50.106;8.580;2023-04-24T00:28:01;2.77;;;2.57;;
11245;SDS011;59870;50.106;8.580;2023-04-24T00:30:28;2.77;;;2.67;;
11245;SDS011;59870;50.106;8.580;2023-04-24T00:32:56;2.90;;;2.73;;
11245;SDS011;59870;50.106;8.580;2023-04-24T00:35:24;2.67;;;2.50;;
11245;SDS011;59870;50.106;8.580;2023-04-24T00:37:52;2.70;;;2.60;;
11245;SDS011;59870;50.106;8.580;2023-04-24T00:40:19;3.07;;;2.97;;
11245;SDS011;59870;50.106;8.580;2023-04-24T00:42:47;2.80;;;2.60;;
11245;SDS011;59870;50.106;8.580;2023-04-24T00:45:15;3.10;;;3.00;;
11245;SDS011;59870;50.106;8.580;2023-04-24T00:47:42;3.00;;;2.90;;
11245;SDS011;59870;50.106;8.580;2023-04-24T00:50:10;2.87;;;2.67;;
11245;SDS011;59870;50.106;8.580;2023-04-24T00:52:40;3.10;;;3.00;;
11245;SDS011;59870;50.106;8.580;2023-04-24T00:55:08;3.00;;;2.80;;
11245;SDS011;59870;50.106;8.580;2023-04-24T00:57:36;2.97;;;2.77;;
11245;SDS011;59870;50.106;8.580;2023-04-24T01:00:05;2.67;;;2.57;;
11245;SDS011;59870;50.106;8.580;2023-04-24T01:02:42;3.30;;;3.00;;
11245;SDS011;59870;50.106;8.580;2023-04-24T01:05:13;2.90;;;2.80;;
11245;SDS011;59870;50.106;8.580;2023-04-24T01:07:43;3.10;;;2.90;;
11245;SDS011;59870;50.106;8.580;2023-04-24T01:10:14;3.03;;;2.83;;
11245;SDS011;59870;50.106;8.580;2023-04-24T01:12:42;2.67;;;2.57;;
11245;SDS011;59870;50.106;8.580;2023-04-24T01:15:11;2.93;;;2.80;;
11245;SDS011;59870;50.106;8.580;2023-04-24T01:17:43;3.10;;;2.80;;
11245;SDS011;59870;50.106;8.580;2023-04-24T01:20:13;3.60;;;2.97;;
11245;SDS011;59870;50.106;8.580;2023-04-24T01:22:41;3.20;;;2.53;;
11245;SDS011;59870;50.106;8.580;2023-04-24T01:25:09;2.83;;;2.73;;
11245;SDS011;59870;50.106;8.580;2023-04-24T01:27:36;3.57;;;3.30;;
11245;SDS011;59870;50.106;8.580;2023-04-24T01:30:04;3.20;;;3.00;;
11245;SDS011;59870;50.106;8.580;2023-04-24T01:32:33;2.67;;;2.47;;
11245;SDS011;59870;50.106;8.580;2023-04-24T01:35:01;2.63;;;2.53;;
11245;SDS011;59870;50.106;8.580;2023-04-24T01:37:29;3.77;;;2.80;;
11245;SDS011;59870;50.106;8.580;2023-04-24T01:39:59;2.90;;;2.70;;
11245;SDS011;59870;50.106;8.580;2023-04-24T01:42:26;2.70;;;2.60;;
11245;SDS011;59870;50.106;8.580;2023-04-24T01:44:53;3.00;;;2.80;;
11245;SDS011;59870;50.106;8.580;2023-04-24T01:47:23;3.03;;;2.83;;
11245;SDS011;59870;50.106;8.580;2023-04-24T01:49:51;2.77;;;2.67;;
11245;SDS011;59870;50.106;8.580;2023-04-24T01:52:19;2.83;;;2.60;;
11245;SDS011;59870;50.106;8.580;2023-04-24T01:54:47;2.70;;;2.50;;
11245;SDS011;59870;50.106;8.580;2023-04-24T01:57:14;2.70;;;2.50;;
11245;SDS011;59870;50.106;8.580;2023-04-24T01:59:43;2.70;;;2.50;;
11245;SDS011;59870;50.106;8.580;2023-04-24T02:02:11;2.20;;;2.17;;
11245;SDS011;59870;50.106;8.580;2023-04-24T02:04:39;2.93;;;2.80;;
11245;SDS011;59870;50.106;8.580;2023-04-24T02:07:07;3.87;;;3.57;;
11245;SDS011;59870;50.106;8.580;2023-04-24T02:09:35;2.93;;;2.73;;
11245;SDS011;59870;50.106;8.580;2023-04-24T02:12:02;3.30;;;3.10;;
11245;SDS011;59870;50.106;8.580;2023-04-24T02:14:30;4.17;;;3.17;;
11245;SDS011;59870;50.106;8.580;2023-04-24T02:16:58;3.20;;;3.00;;
11245;SDS011;59870;50.106;8.580;2023-04-24T02:19:25;3.13;;;2.93;;
11245;SDS011;59870;50.106;8.580;2023-04-24T02:21:53;4.80;;;3.40;;
11245;SDS011;59870;50.106;8.580;2023-04-24T02:24:20;2.80;;;2.70;;
11245;SDS011;59870;50.106;8.580;2023-04-24T02:26:47;3.10;;;2.70;;
11245;SDS011;59870;50.106;8.580;2023-04-24T02:29:15;3.40;;;3.20;;
11245;SDS011;59870;50.106;8.580;2023-04-24T02:31:43;3.07;;;2.40;;
11245;SDS011;59870;50.106;8.580;2023-04-24T02:34:11;3.00;;;2.90;;
11245;SDS011;59870;50.106;8.580;2023-04-24T02:36:38;3.23;;;2.70;;
11245;SDS011;59870;50.106;8.580;2023-04-24T02:39:07;3.30;;;3.10;;
11245;SDS011;59870;50.106;8.580;2023-04-24T02:41:35;3.00;;;2.70;;
11245;SDS011;59870;50.106;8.580;2023-04-24T02:44:02;4.13;;;3.00;;
11245;SDS011;59870;50.106;8.580;2023-04-24T02:46:30;2.97;;;2.73;;
11245;SDS011;59870;50.106;8.580;2023-04-24T02:48:57;2.40;;;2.20;;
11245;SDS011;59870;50.106;8.580;2023-04-24T02:51:24;3.10;;;2.40;;
11245;SDS011;59870;50.106;8.580;2023-04-24T02:53:52;2.33;;;2.23;;
11245;SDS011;59870;50.106;8.580;2023-04-24T02:56:19;2.77;;;2.67;;
11245;SDS011;59870;50.106;8.580;2023-04-24T02:58:47;4.70;;;2.43;;
11245;SDS011;59870;50.106;8.580;2023-04-24T03:01:14;2.77;;;2.63;;
11245;SDS011;59870;50.106;8.580;2023-04-24T03:03:41;2.60;;;2.40;;
11245;SDS011;59870;50.106;8.580;2023-04-24T03:06:09;2.90;;;2.80;;
11245;SDS011;59870;50.106;8.580;2023-04-24T03:08:37;3.30;;;3.10;;
11245;SDS011;59870;50.106;8.580;2023-04-24T03:11:04;3.07;;;2.70;;
11245;SDS011;59870;50.106;8.580;2023-04-24T03:13:32;3.13;;;2.83;;
11245;SDS011;59870;50.106;8.580;2023-04-24T03:15:59;3.43;;;2.57;;
11245;SDS011;59870;50.106;8.580;2023-04-24T03:18:27;2.70;;;2.57;;
11245;SDS011;59870;50.106;8.580;2023-04-24T03:20:57;2.50;;;2.40;;
11245;SDS011;59870;50.106;8.580;2023-04-24T03:23:24;3.07;;;2.70;;
11245;SDS011;59870;50.106;8.580;2023-04-24T03:25:52;2.73;;;2.63;;
11245;SDS011;59870;50.106;8.580;2023-04-24T03:28:19;3.27;;;2.70;;
11245;SDS011;59870;50.106;8.580;2023-04-24T03:31:02;3.50;;;3.10;;
11245;SDS011;59870;50.106;8.580;2023-04-24T03:33:34;3.23;;;2.30;;
11245;SDS011;59870;50.106;8.580;2023-04-24T03:36:03;2.53;;;2.43;;
11245;SDS011;59870;50.106;8.580;2023-04-24T03:38:38;3.53;;;2.80;;
11245;SDS011;59870;50.106;8.580;2023-04-24T03:41:40;2.53;;;2.40;;
11245;SDS011;59870;50.106;8.580;2023-04-24T03:44:16;2.97;;;2.77;;
11245;SDS011;59870;50.106;8.580;2023-04-24T03:46:44;3.07;;;2.87;;
11245;SDS011;59870;50.106;8.580;2023-04-24T03:49:12;3.50;;;3.30;;
11245;SDS011;59870;50.106;8.580;2023-04-24T03:51:42;5.50;;;3.40;;
11245;SDS011;59870;50.106;8.580;2023-04-24T03:54:20;3.17;;;2.97;;
11245;SDS011;59870;50.106;8.580;2023-04-24T03:56:48;2.50;;;2.40;;
11245;SDS011;59870;50.106;8.580;2023-04-24T03:59:16;2.83;;;2.63;;
11245;SDS011;59870;50.106;8.580;2023-04-24T04:01:47;2.90;;;2.70;;
11245;SDS011;59870;50.106;8.580;2023-04-24T04:04:16;2.73;;;2.63;;
11245;SDS011;59870;50.106;8.580;2023-04-24T04:06:44;3.20;;;3.00;;
11245;SDS011;59870;50.106;8.580;2023-04-24T04:09:13;2.80;;;2.60;;
11245;SDS011;59870;50.106;8.580;2023-04-24T04:11:41;3.33;;;3.03;;
11245;SDS011;59870;50.106;8.580;2023-04-24T04:14:09;3.17;;;2.87;;
11245;SDS011;59870;50.106;8.580;2023-04-24T04:16:40;2.50;;;2.40;;
11245;SDS011;59870;50.106;8.580;2023-04-24T04:19:08;3.23;;;3.03;;
11245;SDS011;59870;50.106;8.580;2023-04-24T04:21:40;3.37;;;3.10;;
11245;SDS011;59870;50.106;8.580;2023-04-24T04:24:43;3.47;;;3.27;;
11245;SDS011;59870;50.106;8.580;2023-04-24T04:27:16;3.20;;;3.00;;
11245;SDS011;59870;50.106;8.580;2023-04-24T04:29:52;3.27;;;3.13;;
11245;SDS011;59870;50.106;8.580;2023-04-24T04:32:19;3.17;;;2.97;;
11245;SDS011;59870;50.106;8.580;2023-04-24T04:34:47;4.00;;;3.03;;
11245;SDS011;59870;50.106;8.580;2023-04-24T04:37:16;3.23;;;3.13;;
11245;SDS011;59870;50.106;8.580;2023-04-24T04:39:58;3.27;;;3.17;;
11245;SDS011;59870;50.106;8.580;2023-04-24T04:42:53;2.70;;;2.60;;
11245;SDS011;59870;50.106;8.580;2023-04-24T04:45:21;3.50;;;3.30;;
11245;SDS011;59870;50.106;8.580;2023-04-24T04:48:11;3.47;;;3.27;;
11245;SDS011;59870;50.106;8.580;2023-04-24T04:50:41;3.57;;;3.37;;
11245;SDS011;59870;50.106;8.580;2023-04-24T04:53:09;3.13;;;2.93;;
11245;SDS011;59870;50.106;8.580;2023-04-24T04:55:38;3.50;;;3.30;;
11245;SDS011;59870;50.106;8.580;2023-04-24T05:10:17;4.03;;;3.73;;
11245;SDS011;59870;50.106;8.580;2023-04-24T05:12:46;3.63;;;3.40;;
11245;SDS011;59870;50.106;8.580;2023-04-24T05:15:13;3.50;;;3.40;;
11245;SDS011;59870;50.106;8.580;2023-04-24T05:17:43;3.50;;;3.30;;
11245;SDS011;59870;50.106;8.580;2023-04-24T05:20:14;3.40;;;3.23;;
11245;SDS011;59870;50.106;8.580;2023-04-24T05:22:46;3.40;;;3.10;;
11245;SDS011;59870;50.106;8.580;2023-04-24T05:25:16;3.17;;;2.90;;
11245;SDS011;59870;50.106;8.580;2023-04-24T05:47:19;4.23;;;3.93;;
11245;SDS011;59870;50.106;8.580;2023-04-24T05:49:56;3.90;;;3.60;;
11245;SDS011;59870;50.106;8.580;2023-04-24T06:11:23;4.03;;;3.83;;
11245;SDS011;59870;50.106;8.580;2023-04-24T06:13:52;4.00;;;3.70;;
11245;SDS011;59870;50.106;8.580;2023-04-24T06:16:43;3.67;;;3.47;;
11245;SDS011;59870;50.106;8.580;2023-04-24T06:22:55;4.03;;;3.83;;
11245;SDS011;59870;50.106;8.580;2023-04-24T06:25:27;3.80;;;3.60;;
11245;SDS011;59870;50.106;8.580;2023-04-24T06:27:55;3.97;;;3.77;;
11245;SDS011;59870;50.106;8.580;2023-04-24T06:30:23;4.03;;;3.83;;
11245;SDS011;59870;50.106;8.580;2023-04-24T06:39:12;4.23;;;3.93;;
11245;SDS011;59870;50.106;8.580;2023-04-24T06:41:40;5.73;;;4.37;;
11245;SDS011;59870;50.106;8.580;2023-04-24T06:50:11;3.80;;;3.50;;
11245;SDS011;59870;50.106;8.580;2023-04-24T06:52:38;3.50;;;3.20;;
11245;SDS011;59870;50.106;8.580;2023-04-24T06:55:07;4.03;;;3.73;;
11245;SDS011;59870;50.106;8.580;2023-04-24T07:00:35;3.53;;;3.33;;
11245;SDS011;59870;50.106;8.580;2023-04-24T07:03:04;3.60;;;3.40;;
11245;SDS011;59870;50.106;8.580;2023-04-24T07:11:51;3.77;;;3.47;;
11245;SDS011;59870;50.106;8.580;2023-04-24T07:14:20;3.60;;;3.40;;
11245;SDS011;59870;50.106;8.580;2023-04-24T07:16:47;3.60;;;3.40;;
11245;SDS011;59870;50.106;8.580;2023-04-24T07:19:17;3.93;;;3.73;;
11245;SDS011;59870;50.106;8.580;2023-04-24T07:21:46;3.73;;;3.53;;
11245;SDS011;59870;50.106;8.580;2023-04-24T07:24:14;4.23;;;4.00;;
11245;SDS011;59870;50.106;8.580;2023-04-24T07:26:41;6.37;;;4.07;;
11245;SDS011;59870;50.106;8.580;2023-04-24T07:29:10;4.70;;;4.33;;
11245;SDS011;59870;50.106;8.580;2023-04-24T07:31:37;3.90;;;3.70;;
11245;SDS011;59870;50.106;8.580;2023-04-24T07:34:05;4.50;;;4.20;;
11245;SDS011;59870;50.106;8.580;2023-04-24T07:36:32;3.80;;;3.60;;
11245;SDS011;59870;50.106;8.580;2023-04-24T07:38:59;3.77;;;3.50;;
11245;SDS011;59870;50.106;8.580;2023-04-24T07:41:27;3.57;;;3.47;;
11245;SDS011;59870;50.106;8.580;2023-04-24T07:43:54;3.87;;;3.30;;
11245;SDS011;59870;50.106;8.580;2023-04-24T07:46:22;3.63;;;3.43;;
11245;SDS011;59870;50.106;8.580;2023-04-24T07:48:50;3.37;;;3.27;;
11245;SDS011;59870;50.106;8.580;2023-04-24T07:51:37;4.00;;;3.77;;
11245;SDS011;59870;50.106;8.580;2023-04-24T07:54:05;3.20;;;3.10;;
11245;SDS011;59870;50.106;8.580;2023-04-24T07:56:33;3.60;;;3.40;;
11245;SDS011;59870;50.106;8.580;2023-04-24T07:59:01;3.63;;;3.43;;
11245;SDS011;59870;50.106;8.580;2023-04-24T08:01:29;3.70;;;3.50;;
11245;SDS011;59870;50.106;8.580;2023-04-24T08:03:56;4.00;;;3.70;;
11245;SDS011;59870;50.106;8.580;2023-04-24T08:06:24;3.60;;;3.40;;
11245;SDS011;59870;50.106;8.580;2023-04-24T08:08:54;3.80;;;3.60;;
11245;SDS011;59870;50.106;8.580;2023-04-24T08:11:22;3.80;;;3.50;;
11245;SDS011;59870;50.106;8.580;2023-04-24T08:13:50;3.50;;;3.30;;
11245;SDS011;59870;50.106;8.580;2023-04-24T08:16:18;3.33;;;3.13;;
11245;SDS011;59870;50.106;8.580;2023-04-24T08:18:45;4.23;;;3.63;;
11245;SDS011;59870;50.106;8.580;2023-04-24T08:21:13;3.97;;;3.57;;
11245;SDS011;59870;50.106;8.580;2023-04-24T08:23:44;4.00;;;3.80;;
11245;SDS011;59870;50.106;8.580;2023-04-24T08:26:12;3.93;;;3.63;;
11245;SDS011;59870;50.106;8.580;2023-04-24T08:28:40;3.73;;;3.63;;
11245;SDS011;59870;50.106;8.580;2023-04-24T08:31:07;4.47;;;4.10;;
11245;SDS011;59870;50.106;8.580;2023-04-24T08:33:35;4.23;;;4.03;;
11245;SDS011;59870;50.106;8.580;2023-04-24T08:36:03;3.97;;;3.67;;
11245;SDS011;59870;50.106;8.580;2023-04-24T08:38:31;5.10;;;4.00;;
11245;SDS011;59870;50.106;8.580;2023-04-24T08:40:59;3.67;;;3.30;;
11245;SDS011;59870;50.106;8.580;2023-04-24T08:43:28;3.50;;;3.40;;
11245;SDS011;59870;50.106;8.580;2023-04-24T08:45:57;5.10;;;3.77;;
11245;SDS011;59870;50.106;8.580;2023-04-24T08:48:26;3.80;;;3.60;;
11245;SDS011;59870;50.106;8.580;2023-04-24T08:50:58;3.70;;;3.60;;
11245;SDS011;59870;50.106;8.580;2023-04-24T08:53:26;3.37;;;3.27;;
11245;SDS011;59870;50.106;8.580;2023-04-24T08:55:54;3.73;;;3.43;;
11245;SDS011;59870;50.106;8.580;2023-04-24T08:58:27;3.93;;;3.67;;
11245;SDS011;59870;50.106;8.580;2023-04-24T09:00:55;3.70;;;3.50;;
11245;SDS011;59870;50.106;8.580;2023-04-24T09:03:23;3.43;;;3.23;;
11245;SDS011;59870;50.106;8.580;2023-04-24T09:05:51;3.40;;;3.20;;
11245;SDS011;59870;50.106;8.580;2023-04-24T09:08:22;5.43;;;4.93;;
11245;SDS011;59870;50.106;8.580;2023-04-24T09:10:51;3.90;;;3.70;;
11245;SDS011;59870;50.106;8.580;2023-04-24T09:13:22;3.47;;;3.27;;
11245;SDS011;59870;50.106;8.580;2023-04-24T09:15:49;4.57;;;4.20;;
11245;SDS011;59870;50.106;8.580;2023-04-24T09:18:17;4.47;;;4.10;;
11245;SDS011;59870;50.106;8.580;2023-04-24T09:20:57;3.57;;;3.37;;
11245;SDS011;59870;50.106;8.580;2023-04-24T09:23:34;5.33;;;4.73;;
11245;SDS011;59870;50.106;8.580;2023-04-24T09:26:02;3.37;;;3.17;;
11245;SDS011;59870;50.106;8.580;2023-04-24T09:28:37;4.50;;;3.90;;
11245;SDS011;59870;50.106;8.580;2023-04-24T09:31:08;3.00;;;2.90;;
11245;SDS011;59870;50.106;8.580;2023-04-24T09:33:43;3.60;;;3.40;;
11245;SDS011;59870;50.106;8.580;2023-04-24T09:36:28;4.37;;;3.97;;
11245;SDS011;59870;50.106;8.580;2023-04-24T09:38:59;3.30;;;3.10;;
11245;SDS011;59870;50.106;8.580;2023-04-24T09:41:28;3.03;;;2.93;;
11245;SDS011;59870;50.106;8.580;2023-04-24T09:44:15;4.17;;;3.30;;
11245;SDS011;59870;50.106;8.580;2023-04-24T09:46:45;3.30;;;3.10;;
11245;SDS011;59870;50.106;8.580;2023-04-24T09:49:16;3.37;;;3.13;;
11245;SDS011;59870;50.106;8.580;2023-04-24T09:51:49;3.30;;;3.10;;
11245;SDS011;59870;50.106;8.580;2023-04-24T09:54:17;3.00;;;2.90;;
11245;SDS011;59870;50.106;8.580;2023-04-24T09:56:49;2.87;;;2.77;;
11245;SDS011;59870;50.106;8.580;2023-04-24T09:59:18;2.70;;;2.60;;
11245;SDS011;59870;50.106;8.580;2023-04-24T10:01:46;2.70;;;2.60;;
11245;SDS011;59870;50.106;8.580;2023-04-24T10:04:19;2.77;;;2.47;;
11245;SDS011;59870;50.106;8.580;2023-04-24T10:06:51;2.87;;;2.73;;
11245;SDS011;59870;50.106;8.580;2023-04-24T10:09:21;4.57;;;2.73;;
11245;SDS011;59870;50.106;8.580;2023-04-24T10:11:50;3.00;;;2.80;;
11245;SDS011;59870;50.106;8.580;2023-04-24T10:14:22;2.83;;;2.63;;
11245;SDS011;59870;50.106;8.580;2023-04-24T10:16:52;3.03;;;2.83;;
11245;SDS011;59870;50.106;8.580;2023-04-24T10:19:21;2.63;;;2.53;;
11245;SDS011;59870;50.106;8.580;2023-04-24T10:21:52;2.67;;;2.50;;
11245;SDS011;59870;50.106;8.580;2023-04-24T10:24:22;3.03;;;2.80;;
11245;SDS011;59870;50.106;8.580;2023-04-24T10:26:49;2.60;;;2.50;;
11245;SDS011;59870;50.106;8.580;2023-04-24T10:29:18;2.70;;;2.60;;
11245;SDS011;59870;50.106;8.580;2023-04-24T10:31:46;4.40;;;3.00;;
11245;SDS011;59870;50.106;8.580;2023-04-24T10:34:15;3.13;;;2.93;;
11245;SDS011;59870;50.106;8.580;2023-04-24T10:36:45;3.23;;;2.93;;
11245;SDS011;59870;50.106;8.580;2023-04-24T10:39:19;3.20;;;3.00;;
11245;SDS011;59870;50.106;8.580;2023-04-24T10:41:54;3.10;;;2.90;;
11245;SDS011;59870;50.106;8.580;2023-04-24T10:44:24;3.97;;;3.03;;
11245;SDS011;59870;50.106;8.580;2023-04-24T10:46:55;2.93;;;2.73;;
11245;SDS011;59870;50.106;8.580;2023-04-24T10:49:28;2.57;;;2.47;;
11245;SDS011;59870;50.106;8.580;2023-04-24T10:52:00;2.60;;;2.40;;
11245;SDS011;59870;50.106;8.580;2023-04-24T10:54:33;3.13;;;2.60;;
11245;SDS011;59870;50.106;8.580;2023-04-24T10:59:51;2.40;;;2.30;;
11245;SDS011;59870;50.106;8.580;2023-04-24T11:05:55;2.67;;;2.47;;
11245;SDS011;59870;50.106;8.580;2023-04-24T11:08:46;2.43;;;2.23;;
11245;SDS011;59870;50.106;8.580;2023-04-24T11:11:16;2.13;;;2.03;;
11245;SDS011;59870;50.106;8.580;2023-04-24T11:18:51;2.33;;;2.23;;
11245;SDS011;59870;50.106;8.580;2023-04-24T11:21:30;2.17;;;2.07;;
11245;SDS011;59870;50.106;8.580;2023-04-24T11:24:11;2.03;;;1.80;;
11245;SDS011;59870;50.106;8.580;2023-04-24T11:27:15;2.80;;;2.70;;
11245;SDS011;59870;50.106;8.580;2023-04-24T11:29:46;2.77;;;2.50;;
11245;SDS011;59870;50.106;8.580;2023-04-24T11:32:19;3.13;;;2.47;;
11245;SDS011;59870;50.106;8.580;2023-04-24T11:37:34;2.37;;;2.27;;
11245;SDS011;59870;50.106;8.580;2023-04-24T11:40:06;2.30;;;2.20;;
11245;SDS011;59870;50.106;8.580;2023-04-24T11:45:12;2.63;;;2.53;;
11245;SDS011;59870;50.106;8.580;2023-04-24T11:47:42;2.90;;;2.70;;
11245;SDS011;59870;50.106;8.580;2023-04-24T11:50:11;2.60;;;2.40;;
11245;SDS011;59870;50.106;8.580;2023-04-24T11:52:41;2.70;;;2.60;;
11245;SDS011;59870;50.106;8.580;2023-04-24T12:00:16;2.80;;;2.70;;
11245;SDS011;59870;50.106;8.580;2023-04-24T12:02:46;2.87;;;2.77;;
11245;SDS011;59870;50.106;8.580;2023-04-24T12:05:24;2.40;;;2.30;;
11245;SDS011;59870;50.106;8.580;2023-04-24T12:07:55;2.40;;;2.30;;
11245;SDS011;59870;50.106;8.580;2023-04-24T12:10:24;2.43;;;2.33;;
11245;SDS011;59870;50.106;8.580;2023-04-24T12:12:58;2.73;;;2.27;;
11245;SDS011;59870;50.106;8.580;2023-04-24T12:18:43;2.27;;;2.13;;
11245;SDS011;59870;50.106;8.580;2023-04-24T12:21:19;2.00;;;1.90;;
11245;SDS011;59870;50.106;8.580;2023-04-24T12:23:49;1.87;;;1.77;;
11245;SDS011;59870;50.106;8.580;2023-04-24T13:08:53;3.57;;;3.33;;
11245;SDS011;59870;50.106;8.580;2023-04-24T13:11:22;4.17;;;3.77;;
11245;SDS011;59870;50.106;8.580;2023-04-24T13:16:59;3.70;;;3.30;;
11245;SDS011;59870;50.106;8.580;2023-04-24T13:19:27;3.60;;;3.30;;
11245;SDS011;59870;50.106;8.580;2023-04-24T13:21:57;4.20;;;3.57;;
11245;SDS011;59870;50.106;8.580;2023-04-24T13:30:38;2.60;;;2.43;;
11245;SDS011;59870;50.106;8.580;2023-04-24T13:33:06;3.33;;;3.13;;
11245;SDS011;59870;50.106;8.580;2023-04-24T13:35:34;3.17;;;2.97;;
11245;SDS011;59870;50.106;8.580;2023-04-24T13:41:11;3.60;;;3.30;;
11245;SDS011;59870;50.106;8.580;2023-04-24T13:49:53;3.13;;;2.93;;
11245;SDS011;59870;50.106;8.580;2023-04-24T13:52:21;3.23;;;2.93;;
11245;SDS011;59870;50.106;8.580;2023-04-24T13:54:48;3.27;;;3.10;;
11245;SDS011;59870;50.106;8.580;2023-04-24T13:57:16;3.50;;;2.87;;
11245;SDS011;59870;50.106;8.580;2023-04-24T13:59:44;3.53;;;3.33;;
11245;SDS011;59870;50.106;8.580;2023-04-24T14:02:12;3.20;;;3.03;;
11245;SDS011;59870;50.106;8.580;2023-04-24T14:04:42;3.33;;;3.13;;
11245;SDS011;59870;50.106;8.580;2023-04-24T14:07:21;3.87;;;3.43;;
11245;SDS011;59870;50.106;8.580;2023-04-24T14:09:48;3.67;;;3.37;;
11245;SDS011;59870;50.106;8.580;2023-04-24T14:12:17;3.30;;;3.10;;
11245;SDS011;59870;50.106;8.580;2023-04-24T14:14:47;3.20;;;3.00;;
11245;SDS011;59870;50.106;8.580;2023-04-24T14:20:18;3.23;;;3.03;;
11245;SDS011;59870;50.106;8.580;2023-04-24T14:22:46;3.40;;;3.20;;
11245;SDS011;59870;50.106;8.580;2023-04-24T14:44:57;4.00;;;3.60;;
11245;SDS011;59870;50.106;8.580;2023-04-24T14:47:26;3.93;;;3.63;;
11245;SDS011;59870;50.106;8.580;2023-04-24T14:49:53;6.17;;;3.70;;
11245;SDS011;59870;50.106;8.580;2023-04-24T14:52:21;3.53;;;3.33;;
11245;SDS011;59870;50.106;8.580;2023-04-24T14:54:50;4.13;;;3.53;;
11245;SDS011;59870;50.106;8.580;2023-04-24T14:57:25;4.30;;;3.90;;
11245;SDS011;59870;50.106;8.580;2023-04-24T14:59:53;4.33;;;4.03;;
11245;SDS011;59870;50.106;8.580;2023-04-24T15:02:20;4.20;;;3.80;;
11245;SDS011;59870;50.106;8.580;2023-04-24T15:04:49;3.67;;;3.47;;
11245;SDS011;59870;50.106;8.580;2023-04-24T15:07:17;3.40;;;3.20;;
11245;SDS011;59870;50.106;8.580;2023-04-24T15:09:44;4.13;;;3.83;;
11245;SDS011;59870;50.106;8.580;2023-04-24T15:12:14;3.53;;;3.33;;
11245;SDS011;59870;50.106;8.580;2023-04-24T15:17:52;4.30;;;3.97;;
11245;SDS011;59870;50.106;8.580;2023-04-24T15:33:00;3.87;;;3.57;;
11245;SDS011;59870;50.106;8.580;2023-04-24T15:44:51;3.80;;;3.50;;
11245;SDS011;59870;50.106;8.580;2023-04-24T15:47:19;3.73;;;3.40;;
11245;SDS011;59870;50.106;8.580;2023-04-24T15:49:47;3.70;;;3.50;;
11245;SDS011;59870;50.106;8.580;2023-04-24T16:02:13;5.20;;;4.80;;
11245;SDS011;59870;50.106;8.580;2023-04-24T16:04:50;3.40;;;3.10;;
11245;SDS011;59870;50.106;8.580;2023-04-24T16:07:26;4.00;;;3.70;;
11245;SDS011;59870;50.106;8.580;2023-04-24T16:10:02;4.17;;;3.77;;
11245;SDS011;59870;50.106;8.580;2023-04-24T16:12:34;4.07;;;3.67;;
11245;SDS011;59870;50.106;8.580;2023-04-24T16:15:10;4.40;;;4.00;;
11245;SDS011;59870;50.106;8.580;2023-04-24T16:17:43;3.43;;;3.13;;
11245;SDS011;59870;50.106;8.580;2023-04-24T16:20:15;3.50;;;3.30;;
11245;SDS011;59870;50.106;8.580;2023-04-24T16:45:36;3.70;;;3.40;;
11245;SDS011;59870;50.106;8.580;2023-04-24T16:48:04;3.67;;;3.47;;
11245;SDS011;59870;50.106;8.580;2023-04-24T16:50:31;3.80;;;3.60;;
11245;SDS011;59870;50.106;8.580;2023-04-24T16:52:59;4.00;;;3.70;;
11245;SDS011;59870;50.106;8.580;2023-04-24T16:55:26;4.20;;;3.83;;
11245;SDS011;59870;50.106;8.580;2023-04-24T16:57:54;4.00;;;3.70;;
11245;SDS011;59870;50.106;8.580;2023-04-24T17:00:25;3.67;;;3.40;;
11245;SDS011;59870;50.106;8.580;2023-04-24T17:02:52;3.47;;;3.27;;
11245;SDS011;59870;50.106;8.580;2023-04-24T17:05:20;3.60;;;3.30;;
11245;SDS011;59870;50.106;8.580;2023-04-24T17:07:52;3.50;;;3.30;;
11245;SDS011;59870;50.106;8.580;2023-04-24T17:10:19;4.13;;;3.80;;
11245;SDS011;59870;50.106;8.580;2023-04-24T17:12:46;4.63;;;3.73;;
11245;SDS011;59870;50.106;8.580;2023-04-24T17:15:14;3.83;;;3.30;;
11245;SDS011;59870;50.106;8.580;2023-04-24T17:17:41;3.80;;;3.60;;
11245;SDS011;59870;50.106;8.580;2023-04-24T17:20:10;3.67;;;3.47;;
11245;SDS011;59870;50.106;8.580;2023-04-24T17:22:48;3.33;;;3.03;;
11245;SDS011;59870;50.106;8.580;2023-04-24T17:25:17;3.53;;;3.23;;
11245;SDS011;59870;50.106;8.580;2023-04-24T17:27:44;3.87;;;3.67;;
11245;SDS011;59870;50.106;8.580;2023-04-24T17:30:12;4.40;;;4.10;;
11245;SDS011;59870;50.106;8.580;2023-04-24T17:32:40;6.17;;;3.97;;
11245;SDS011;59870;50.106;8.580;2023-04-24T17:35:08;3.70;;;3.40;;
11245;SDS011;59870;50.106;8.580;2023-04-24T17:37:37;3.40;;;3.20;;
11245;SDS011;59870;50.106;8.580;2023-04-24T18:02:26;5.63;;;4.17;;
11245;SDS011;59870;50.106;8.580;2023-04-24T18:05:36;4.43;;;4.03;;
11245;SDS011;59870;50.106;8.580;2023-04-24T18:16:57;3.70;;;3.40;;
11245;SDS011;59870;50.106;8.580;2023-04-24T18:48:48;4.40;;;4.13;;
11245;SDS011;59870;50.106;8.580;2023-04-24T19:26:15;3.43;;;3.13;;
11245;SDS011;59870;50.106;8.580;2023-04-24T19:28:44;3.63;;;3.43;;
11245;SDS011;59870;50.106;8.580;2023-04-24T19:31:11;3.30;;;3.10;;
11245;SDS011;59870;50.106;8.580;2023-04-24T19:33:40;3.17;;;2.97;;
11245;SDS011;59870;50.106;8.580;2023-04-24T19:36:11;3.20;;;3.00;;
11245;SDS011;59870;50.106;8.580;2023-04-24T19:38:38;3.50;;;3.30;;
11245;SDS011;59870;50.106;8.580;2023-04-24T19:41:06;3.23;;;3.03;;
11245;SDS011;59870;50.106;8.580;2023-04-24T19:43:34;3.40;;;3.20;;
11245;SDS011;59870;50.106;8.580;2023-04-24T19:46:02;3.33;;;3.13;;
11245;SDS011;59870;50.106;8.580;2023-04-24T19:48:29;3.17;;;2.97;;
11245;SDS011;59870;50.106;8.580;2023-04-24T19:50:58;3.27;;;3.07;;
11245;SDS011;59870;50.106;8.580;2023-04-24T19:53:28;3.77;;;3.50;;
11245;SDS011;59870;50.106;8.580;2023-04-24T19:55:56;4.30;;;3.90;;
11245;SDS011;59870;50.106;8.580;2023-04-24T20:01:49;4.00;;;3.70;;
11245;SDS011;59870;50.106;8.580;2023-04-24T20:04:18;4.00;;;3.70;;
11245;SDS011;59870;50.106;8.580;2023-04-24T20:06:49;3.33;;;3.13;;
11245;SDS011;59870;50.106;8.580;2023-04-24T20:12:53;3.50;;;3.20;;
11245;SDS011;59870;50.106;8.580;2023-04-24T20:16:14;4.20;;;3.80;;
11245;SDS011;59870;50.106;8.580;2023-04-24T20:19:24;3.80;;;3.60;;
11245;SDS011;59870;50.106;8.580;2023-04-24T20:31:32;4.63;;;4.33;;
11245;SDS011;59870;50.106;8.580;2023-04-24T20:33:59;6.60;;;4.13;;
11245;SDS011;59870;50.106;8.580;2023-04-24T20:39:52;4.77;;;4.47;;
11245;SDS011;59870;50.106;8.580;2023-04-24T20:42:25;4.70;;;4.40;;
11245;SDS011;59870;50.106;8.580;2023-04-24T20:44:57;4.40;;;4.10;;
11245;SDS011;59870;50.106;8.580;2023-04-24T20:47:29;4.20;;;3.90;;
11245;SDS011;59870;50.106;8.580;2023-04-24T20:49:57;4.83;;;4.53;;
11245;SDS011;59870;50.106;8.580;2023-04-24T20:52:24;4.97;;;4.57;;
11245;SDS011;59870;50.106;8.580;2023-04-24T20:54:52;4.80;;;4.50;;
11245;SDS011;59870;50.106;8.580;2023-04-24T21:01:46;4.43;;;4.23;;
11245;SDS011;59870;50.106;8.580;2023-04-24T21:04:14;4.83;;;4.63;;
11245;SDS011;59870;50.106;8.580;2023-04-24T21:06:42;4.37;;;4.13;;
11245;SDS011;59870;50.106;8.580;2023-04-24T21:09:09;4.70;;;4.50;;